createdAt,value
2023-03-04T00:03:58.335Z,5.12
2023-03-04T00:09:00.149Z,5.35
2023-03-04T00:14:02.182Z,4.67
2023-03-04T00:19:04.428Z,4.17
2023-03-04T00:24:06.848Z,3.19
2023-03-04T00:29:08.543Z,3.55
2023-03-04T00:34:10.361Z,2.98
2023-03-04T00:39:12.802Z,3.80
2023-03-04T00:44:14.559Z,3.75
2023-03-04T00:49:16.505Z,4.32
2023-03-04T00:54:18.274Z,4.26
2023-03-04T00:59:20.030Z,3.97
2023-03-04T01:04:21.913Z,4.86
2023-03-04T01:09:23.804Z,5.09
2023-03-04T01:14:26.303Z,4.03
2023-03-04T01:19:28.201Z,4.90
2023-03-04T01:24:30.892Z,5.06
2023-03-04T01:29:32.672Z,4.40
2023-03-04T01:34:34.542Z,4.27
2023-03-04T01:39:36.417Z,2.83
2023-03-04T01:44:38.314Z,4.38
2023-03-04T01:49:40.414Z,4.42
2023-03-04T01:54:42.215Z,4.54
2023-03-04T01:59:45.070Z,4.73
2023-03-04T02:04:46.895Z,4.67
2023-03-04T02:09:49.232Z,3.91
2023-03-04T02:14:51.179Z,4.59
2023-03-04T02:20:03.818Z,4.59
2023-03-04T02:25:13.826Z,4.71
2023-03-04T02:30:17.799Z,4.60
2023-03-04T02:35:21.174Z,4.75
2023-03-04T02:40:33.226Z,4.46
2023-03-04T02:45:45.752Z,4.99
2023-03-04T02:50:51.023Z,4.60
2023-03-04T02:55:52.808Z,4.16
2023-03-04T03:00:57.340Z,3.95
2023-03-04T03:06:01.647Z,3.93
2023-03-04T03:11:03.832Z,4.02
2023-03-04T03:16:07.684Z,4.08
2023-03-04T03:21:09.775Z,3.93
2023-03-04T03:26:12.286Z,3.55
2023-03-04T03:31:14.452Z,3.79
2023-03-04T03:36:16.340Z,3.43
2023-03-04T03:41:18.206Z,3.33
2023-03-04T03:46:20.030Z,3.37
2023-03-04T03:51:21.809Z,3.57
2023-03-04T03:56:23.707Z,3.90
2023-03-04T04:01:25.826Z,3.23
2023-03-04T04:06:27.674Z,3.97
2023-03-04T04:11:29.711Z,3.90
2023-03-04T04:16:31.654Z,3.55
2023-03-04T04:21:34.554Z,3.73
2023-03-04T04:26:36.463Z,3.50
2023-03-04T04:31:38.265Z,3.35
2023-03-04T04:36:40.157Z,3.74
2023-03-04T04:41:43.733Z,3.86
2023-03-04T04:46:45.587Z,3.02
2023-03-04T04:51:47.709Z,3.22
2023-03-04T04:56:49.489Z,3.74
2023-03-04T05:01:51.326Z,3.36
2023-03-04T05:06:53.243Z,4.02
2023-03-04T05:11:55.103Z,3.98
2023-03-04T05:16:57.023Z,4.12
2023-03-04T05:21:58.815Z,4.30
2023-03-04T05:27:01.707Z,4.18
2023-03-04T05:32:03.696Z,3.84
2023-03-04T05:37:05.568Z,3.70
2023-03-04T05:42:07.395Z,3.68
2023-03-04T05:47:09.128Z,4.16
2023-03-04T05:52:11.298Z,4.36
2023-03-04T05:57:13.107Z,4.56
2023-03-04T06:02:14.906Z,4.17
2023-03-04T06:07:16.756Z,4.28
2023-03-04T06:12:18.601Z,3.88
2023-03-04T06:17:20.612Z,4.30
2023-03-04T06:22:22.508Z,4.25
2023-03-04T06:27:24.330Z,4.20
2023-03-04T06:32:26.222Z,4.57
2023-03-04T06:37:28.071Z,4.59
2023-03-04T06:42:30.182Z,4.34
2023-03-04T06:47:32.387Z,4.49
2023-03-04T06:52:34.216Z,4.76
2023-03-04T06:57:36.123Z,4.36
2023-03-04T07:02:37.954Z,4.00
2023-03-04T07:07:39.822Z,4.53
2023-03-04T07:12:41.694Z,4.44
2023-03-04T07:17:43.715Z,4.82
2023-03-04T07:22:45.552Z,4.87
2023-03-04T07:27:47.339Z,5.15
2023-03-04T07:32:49.202Z,5.23
2023-03-04T07:37:51.059Z,5.25
2023-03-04T07:42:54.703Z,4.73
2023-03-04T07:47:58.679Z,3.00
2023-03-04T07:53:00.479Z,3.00
2023-03-04T07:58:03.269Z,3.46
2023-03-04T08:03:05.062Z,3.84
2023-03-04T08:08:06.955Z,3.92
2023-03-04T08:13:09.580Z,2.75
2023-03-04T08:18:12.624Z,3.37
2023-03-04T08:23:14.452Z,2.40
2023-03-04T08:28:17.112Z,2.23
2023-03-04T08:33:18.921Z,3.23
2023-03-04T08:38:20.788Z,4.41
2023-03-04T08:43:24.422Z,4.05
2023-03-04T08:48:26.859Z,4.33
2023-03-04T08:53:28.723Z,4.13
2023-03-04T08:58:30.579Z,3.90
2023-03-04T09:03:32.569Z,3.92
2023-03-04T09:08:35.243Z,4.72
2023-03-04T09:13:37.287Z,4.72
2023-03-04T09:18:40.119Z,4.03
2023-03-04T09:23:42.024Z,5.02
2023-03-04T09:28:43.868Z,5.32
2023-03-04T09:33:46.108Z,5.99
2023-03-04T09:38:48.440Z,5.20
2023-03-04T09:43:52.507Z,3.73
2023-03-04T09:48:56.039Z,5.71
2023-03-04T09:54:18.548Z,5.26
2023-03-04T09:59:23.509Z,6.06
2023-03-04T10:04:31.382Z,6.37
2023-03-04T10:09:46.648Z,7.44
2023-03-04T10:14:54.620Z,8.13
2023-03-04T10:20:03.767Z,7.57
2023-03-04T10:25:18.888Z,3.34
2023-03-04T10:30:50.354Z,0.09
2023-03-04T10:36:10.851Z,2.20
2023-03-04T10:41:19.897Z,4.44
2023-03-04T10:46:23.200Z,1.78
2023-03-04T10:51:29.052Z,0.51
2023-03-04T10:56:33.881Z,2.92
2023-03-04T11:01:35.683Z,-1.75
2023-03-04T11:06:41.031Z,-0.37
2023-03-04T11:11:44.828Z,1.73
2023-03-04T11:17:02.147Z,0.28
2023-03-04T11:22:05.229Z,1.76
2023-03-04T11:27:18.647Z,-0.47
2023-03-04T11:32:31.172Z,1.59
2023-03-04T11:37:41.078Z,-0.20
2023-03-04T11:42:45.645Z,0.15
2023-03-04T11:48:05.886Z,-0.40
2023-03-04T11:53:07.647Z,4.35
2023-03-04T11:58:37.385Z,2.86
2023-03-04T12:04:04.702Z,-0.37
2023-03-04T12:09:51.654Z,2.69
2023-03-04T12:15:26.827Z,3.84
2023-03-04T12:20:49.509Z,1.54
2023-03-04T12:25:54.389Z,2.95
2023-03-04T12:31:21.597Z,0.87
2023-03-04T12:36:38.438Z,-1.59
2023-03-04T12:42:17.391Z,-1.48
2023-03-04T12:47:25.269Z,-0.84
2023-03-04T12:52:52.562Z,-0.64
2023-03-04T12:57:57.121Z,3.28
2023-03-04T13:03:01.976Z,3.58
2023-03-04T13:08:37.738Z,1.41
2023-03-04T13:13:41.984Z,0.30
2023-03-04T13:18:45.030Z,5.86
2023-03-04T13:23:46.891Z,0.92
2023-03-04T13:29:08.714Z,3.39
2023-03-04T13:34:46.997Z,2.84
2023-03-04T13:40:20.564Z,6.03
2023-03-04T13:45:36.601Z,6.18
2023-03-04T13:50:41.108Z,1.69
2023-03-04T13:55:44.057Z,6.73
2023-03-04T14:00:52.155Z,3.27
2023-03-04T14:06:30.340Z,4.31
2023-03-04T14:11:43.766Z,4.80
2023-03-04T14:17:17.966Z,6.38
2023-03-04T14:22:42.777Z,7.83
2023-03-04T14:27:45.607Z,8.15
2023-03-04T14:32:48.765Z,4.91
2023-03-04T14:38:05.374Z,4.77
2023-03-04T14:43:18.071Z,3.80
2023-03-04T14:48:30.463Z,5.87
2023-03-04T14:53:33.795Z,5.66
2023-03-04T14:58:52.169Z,4.09
2023-03-04T15:03:58.389Z,4.12
2023-03-04T15:09:17.427Z,4.74
2023-03-04T15:14:45.528Z,6.25
2023-03-04T15:20:17.762Z,4.54
2023-03-04T15:25:20.554Z,4.00
2023-03-04T15:30:27.519Z,4.80
2023-03-04T15:35:32.519Z,4.22
2023-03-04T15:40:42.852Z,3.43
2023-03-04T15:45:45.217Z,5.87
2023-03-04T15:50:59.199Z,4.34
2023-03-04T15:56:02.610Z,6.78
2023-03-04T16:01:04.548Z,4.73
2023-03-04T16:06:10.501Z,6.10
2023-03-04T16:11:19.008Z,4.93
2023-03-04T16:16:21.260Z,4.73
2023-03-04T16:21:23.436Z,3.68
2023-03-04T16:26:30.279Z,6.80
2023-03-04T16:31:32.140Z,8.83
2023-03-04T16:36:35.729Z,9.49
2023-03-04T16:41:37.642Z,10.20
2023-03-04T16:46:40.027Z,10.85
2023-03-04T16:51:49.804Z,10.69
2023-03-04T16:56:51.665Z,8.70
2023-03-04T17:01:54.374Z,9.82
2023-03-04T17:06:57.810Z,10.92
2023-03-04T17:12:00.183Z,11.15
2023-03-04T17:17:03.674Z,10.93
2023-03-04T17:22:05.553Z,10.72
2023-03-04T17:27:07.440Z,10.33
2023-03-04T17:32:09.335Z,10.56
2023-03-04T17:37:11.532Z,10.33
2023-03-04T17:42:13.573Z,10.18
2023-03-04T17:47:16.014Z,10.38
2023-03-04T17:52:19.058Z,10.08
2023-03-04T17:57:20.924Z,9.90
2023-03-04T18:02:22.769Z,10.22
2023-03-04T18:07:24.735Z,10.51
2023-03-04T18:12:26.610Z,9.62
2023-03-04T18:17:28.561Z,9.51
2023-03-04T18:22:31.270Z,9.34
2023-03-04T18:27:33.298Z,8.65
2023-03-04T18:32:50.754Z,9.42
2023-03-04T18:37:53.814Z,9.74
2023-03-04T18:42:57.074Z,9.34
2023-03-04T18:47:59.673Z,8.96
2023-03-04T18:53:01.668Z,9.28
2023-03-04T18:58:04.220Z,8.70
2023-03-04T19:03:11.789Z,8.81
2023-03-04T19:08:13.705Z,9.19
2023-03-04T19:13:18.341Z,8.86
2023-03-04T19:18:20.569Z,7.90
2023-03-04T19:23:22.467Z,7.53
2023-03-04T19:28:24.345Z,7.83
2023-03-04T19:33:29.253Z,8.35
2023-03-04T19:38:32.742Z,7.31
2023-03-04T19:43:36.913Z,6.63
2023-03-04T19:48:39.966Z,5.97
2023-03-04T19:53:42.012Z,5.39
2023-03-04T19:58:43.949Z,4.26
2023-03-04T20:03:45.831Z,5.60
2023-03-04T20:08:47.848Z,4.94
2023-03-04T20:13:49.708Z,5.19
2023-03-04T20:18:52.203Z,5.95
2023-03-04T20:23:54.008Z,4.12
2023-03-04T20:28:55.867Z,4.62
2023-03-04T20:33:59.239Z,4.30
2023-03-04T20:39:03.337Z,4.22
2023-03-04T20:44:07.275Z,4.52
2023-03-04T20:49:13.008Z,5.35
2023-03-04T20:54:14.859Z,5.60
2023-03-04T20:59:16.889Z,6.17
2023-03-04T21:04:19.880Z,5.93
2023-03-04T21:09:22.966Z,6.35
2023-03-04T21:14:28.608Z,3.96
2023-03-04T21:19:33.511Z,5.74
2023-03-04T21:24:36.484Z,5.62
2023-03-04T21:29:38.574Z,5.48
2023-03-04T21:34:43.481Z,6.14
2023-03-04T21:44:52.224Z,5.59
2023-03-04T21:49:54.035Z,4.67
2023-03-04T21:54:56.119Z,4.86
2023-03-04T21:59:57.985Z,3.96
2023-03-04T22:04:59.800Z,3.98
2023-03-04T22:10:03.070Z,4.52
2023-03-04T22:15:05.491Z,3.75
2023-03-04T22:20:08.070Z,4.41
2023-03-04T22:25:09.875Z,4.49
2023-03-04T22:30:12.168Z,5.15
2023-03-04T22:35:18.033Z,5.37
2023-03-04T22:40:20.247Z,4.68
2023-03-04T22:45:22.110Z,4.73
2023-03-04T22:50:24.371Z,4.96
2023-03-04T22:55:26.114Z,4.02
2023-03-04T23:00:29.951Z,4.55
2023-03-04T23:05:31.858Z,4.16
2023-03-04T23:10:33.803Z,4.28
2023-03-04T23:15:35.647Z,4.58
2023-03-04T23:20:41.963Z,3.52
2023-03-04T23:25:46.151Z,2.65
2023-03-04T23:30:47.962Z,4.09
2023-03-04T23:35:49.906Z,4.42
2023-03-04T23:40:51.679Z,3.99
2023-03-04T23:45:53.443Z,4.46
2023-03-04T23:50:55.414Z,4.20
2023-03-04T23:55:57.130Z,4.86
